<?xml version='1.0' encoding='UTF-8'?><gpx version="1.1" creator="JPX - https://github.com/jenetics/jpx" xmlns="http://www.topografix.com/GPX/1/1"><trk><trkseg><trkpt lat="-34.08769810799636" lon="-71.96795768415505"><ele>39.0</ele><time>2026-04-02T20:13:03Z</time></trkpt><trkpt lat="-34.08766007986541" lon="-71.96802389096429"><ele>39.0</ele><time>2026-04-02T20:13:07Z</time></trkpt><trkpt lat="-34.08763841995106" lon="-71.96811304386776"><ele>39.0</ele><time>2026-04-02T20:13:13Z</time></trkpt><trkpt lat="-34.08767388376865" lon="-71.96818475791308"><ele>39.0</ele><time>2026-04-02T20:13:24Z</time></trkpt><trkpt lat="-34.08764316278597" lon="-71.96826070403375"><ele>39.0</ele><time>2026-04-02T20:13:35Z</time></trkpt><trkpt lat="-34.087654853478014" lon="-71.96834493865406"><ele>39.0</ele><time>2026-04-02T20:13:43Z</time></trkpt><trkpt lat="-34.08771261462248" lon="-71.96838110595209"><ele>39.0</ele><time>2026-04-02T20:13:49Z</time></trkpt><trkpt lat="-34.087751621398176" lon="-71.96844362123795"><ele>36.285714285714285</ele><time>2026-04-02T20:13:55Z</time></trkpt><trkpt lat="-34.08779937425091" lon="-71.96849499011374"><ele>33.57142857142857</ele><time>2026-04-02T20:13:59Z</time></trkpt><trkpt lat="-34.08784561080084" lon="-71.96855815576414"><ele>30.857142857142854</ele><time>2026-04-02T20:14:04Z</time></trkpt><trkpt lat="-34.087896676997325" lon="-71.96861137994705"><ele>28.142857142857146</ele><time>2026-04-02T20:14:44Z</time></trkpt><trkpt lat="-34.08795611580909" lon="-71.96864351871959"><ele>25.42857142857143</ele><time>2026-04-02T20:14:53Z</time></trkpt><trkpt lat="-34.08801955350635" lon="-71.96867624681342"><ele>22.714285714285715</ele><time>2026-04-02T20:14:56Z</time></trkpt><trkpt lat="-34.088058758110996" lon="-71.96875059678436"><ele>20.0</ele><time>2026-04-02T20:15:00Z</time></trkpt><trkpt lat="-34.08805646891869" lon="-71.96882715801055"><ele>20.0</ele><time>2026-04-02T20:15:07Z</time></trkpt><trkpt lat="-34.08810841401584" lon="-71.96877056507894"><ele>20.0</ele><time>2026-04-02T20:15:14Z</time></trkpt><trkpt lat="-34.088191166251335" lon="-71.96872234257378"><ele>20.0</ele><time>2026-04-02T20:15:30Z</time></trkpt><trkpt lat="-34.08825662924207" lon="-71.96871615894484"><ele>20.0</ele><time>2026-04-02T20:15:37Z</time></trkpt><trkpt lat="-34.08831223437372" lon="-71.9686782076116"><ele>20.0</ele><time>2026-04-02T20:15:45Z</time></trkpt><trkpt lat="-34.088387236104296" lon="-71.9686729838968"><ele>20.0</ele><time>2026-04-02T20:15:54Z</time></trkpt><trkpt lat="-34.088459498304395" lon="-71.9686927229612"><ele>20.0</ele><time>2026-04-02T20:16:02Z</time></trkpt><trkpt lat="-34.08852300943143" lon="-71.9687025056489"><ele>24.0</ele><time>2026-04-02T20:16:09Z</time></trkpt><trkpt lat="-34.088585023622976" lon="-71.96868683897861"><ele>28.0</ele><time>2026-04-02T20:16:15Z</time></trkpt><trkpt lat="-34.088644834130456" lon="-71.96865493683755"><ele>32.0</ele><time>2026-04-02T20:16:30Z</time></trkpt><trkpt lat="-34.08871498074725" lon="-71.96864030141258"><ele>36.0</ele><time>2026-04-02T20:16:36Z</time></trkpt><trkpt lat="-34.088768048573534" lon="-71.96859347121739"><ele>40.0</ele><time>2026-04-02T20:16:45Z</time></trkpt><trkpt lat="-34.08883806703819" lon="-71.9686194929574"><ele>43.99999999999999</ele><time>2026-04-02T20:16:50Z</time></trkpt><trkpt lat="-34.08888859136819" lon="-71.96866691231283"><ele>48.0</ele><time>2026-04-02T20:17:02Z</time></trkpt><trkpt lat="-34.088953809417305" lon="-71.96868343129867"><ele>47.99999999999999</ele><time>2026-04-02T20:17:14Z</time></trkpt><trkpt lat="-34.0889952842" lon="-71.96875487574287"><ele>48.0</ele><time>2026-04-02T20:17:22Z</time></trkpt><trkpt lat="-34.089012114224076" lon="-71.96883564232448"><ele>48.0</ele><time>2026-04-02T20:17:42Z</time></trkpt><trkpt lat="-34.08895359806655" lon="-71.96888883279985"><ele>48.0</ele><time>2026-04-02T20:18:15Z</time></trkpt><trkpt lat="-34.08897834754843" lon="-71.96897257711512"><ele>48.0</ele><time>2026-04-02T20:18:22Z</time></trkpt><trkpt lat="-34.08903194724208" lon="-71.96901259553509"><ele>47.99999999999999</ele><time>2026-04-02T20:18:26Z</time></trkpt><trkpt lat="-34.08907938981479" lon="-71.96908206636778"><ele>48.0</ele><time>2026-04-02T20:18:38Z</time></trkpt><trkpt lat="-34.08912325644277" lon="-71.96913725052451"><ele>51.71428571428571</ele><time>2026-04-02T20:19:00Z</time></trkpt><trkpt lat="-34.089195673905756" lon="-71.9690629235551"><ele>55.42857142857143</ele><time>2026-04-02T20:19:48Z</time></trkpt><trkpt lat="-34.089187246158914" lon="-71.96914878303726"><ele>59.14285714285714</ele><time>2026-04-02T20:19:54Z</time></trkpt><trkpt lat="-34.08920635917616" lon="-71.96922195202488"><ele>62.857142857142854</ele><time>2026-04-02T20:20:07Z</time></trkpt><trkpt lat="-34.08923066417145" lon="-71.96929830921962"><ele>66.57142857142857</ele><time>2026-04-02T20:20:24Z</time></trkpt><trkpt lat="-34.089159650404966" lon="-71.96931331930944"><ele>70.28571428571429</ele><time>2026-04-02T20:20:34Z</time></trkpt><trkpt lat="-34.08918235531459" lon="-71.96938886490507"><ele>74.0</ele><time>2026-04-02T20:20:43Z</time></trkpt><trkpt lat="-34.08921814691407" lon="-71.96947057785925"><ele>74.0</ele><time>2026-04-02T20:20:50Z</time></trkpt><trkpt lat="-34.089247090768374" lon="-71.96954579926671"><ele>74.0</ele><time>2026-04-02T20:20:59Z</time></trkpt><trkpt lat="-34.08926745463941" lon="-71.96962050374991"><ele>74.0</ele><time>2026-04-02T20:21:04Z</time></trkpt><trkpt lat="-34.08926560673215" lon="-71.9696973831682"><ele>74.0</ele><time>2026-04-02T20:21:12Z</time></trkpt><trkpt lat="-34.08922973831882" lon="-71.96976325751329"><ele>74.0</ele><time>2026-04-02T20:21:18Z</time></trkpt><trkpt lat="-34.08923871811658" lon="-71.96984226179198"><ele>74.0</ele><time>2026-04-02T20:21:25Z</time></trkpt><trkpt lat="-34.08918579223213" lon="-71.96989075850273"><ele>74.0</ele><time>2026-04-02T20:21:34Z</time></trkpt><trkpt lat="-34.08920940103779" lon="-71.9699858545508"><ele>74.0</ele><time>2026-04-02T20:21:55Z</time></trkpt><trkpt lat="-34.089279684897434" lon="-71.96998441318613"><ele>74.0</ele><time>2026-04-02T20:22:11Z</time></trkpt><trkpt lat="-34.08934799852527" lon="-71.96999770113129"><ele>74.0</ele><time>2026-04-02T20:22:19Z</time></trkpt><trkpt lat="-34.089402224313886" lon="-71.97004395433113"><ele>74.0</ele><time>2026-04-02T20:22:52Z</time></trkpt><trkpt lat="-34.08947653759406" lon="-71.97006333549415"><ele>74.0</ele><time>2026-04-02T20:22:57Z</time></trkpt><trkpt lat="-34.08958255855321" lon="-71.97013950956922"><ele>74.0</ele><time>2026-04-02T20:23:12Z</time></trkpt><trkpt lat="-34.089606719468925" lon="-71.97021275186435"><ele>72.42857142857143</ele><time>2026-04-02T20:23:18Z</time></trkpt><trkpt lat="-34.08966631802259" lon="-71.97027003788885"><ele>70.85714285714286</ele><time>2026-04-02T20:23:24Z</time></trkpt><trkpt lat="-34.0897102869009" lon="-71.97032784902675"><ele>69.28571428571428</ele><time>2026-04-02T20:23:39Z</time></trkpt><trkpt lat="-34.089774114181296" lon="-71.97036457636298"><ele>67.71428571428572</ele><time>2026-04-02T20:23:43Z</time></trkpt><trkpt lat="-34.089841676880624" lon="-71.97039623309536"><ele>66.14285714285714</ele><time>2026-04-02T20:23:48Z</time></trkpt><trkpt lat="-34.089902552252425" lon="-71.9704533147737"><ele>64.57142857142857</ele><time>2026-04-02T20:23:54Z</time></trkpt><trkpt lat="-34.08995462122646" lon="-71.97051055942815"><ele>63.0</ele><time>2026-04-02T20:24:01Z</time></trkpt><trkpt lat="-34.08993297208867" lon="-71.97043401443226"><ele>63.0</ele><time>2026-04-02T20:25:16Z</time></trkpt><trkpt lat="-34.09000465426191" lon="-71.9704391250548"><ele>63.0</ele><time>2026-04-02T20:25:29Z</time></trkpt><trkpt lat="-34.09008034152496" lon="-71.97043463946551"><ele>63.0</ele><time>2026-04-02T20:25:35Z</time></trkpt><trkpt lat="-34.09014564521492" lon="-71.97046094826655"><ele>63.0</ele><time>2026-04-02T20:25:41Z</time></trkpt><trkpt lat="-34.09020418637377" lon="-71.9704941862445"><ele>63.0</ele><time>2026-04-02T20:25:48Z</time></trkpt><trkpt lat="-34.090267851702876" lon="-71.97048222430986"><ele>63.0</ele><time>2026-04-02T20:25:55Z</time></trkpt><trkpt lat="-34.09032906508373" lon="-71.97052816282513"><ele>63.0</ele><time>2026-04-02T20:26:02Z</time></trkpt><trkpt lat="-34.09039883181776" lon="-71.97056293679806"><ele>63.0</ele><time>2026-04-02T20:26:11Z</time></trkpt><trkpt lat="-34.09046174458866" lon="-71.97053923389124"><ele>63.0</ele><time>2026-04-02T20:26:41Z</time></trkpt><trkpt lat="-34.09053069348509" lon="-71.97053923198291"><ele>63.0</ele><time>2026-04-02T20:26:44Z</time></trkpt><trkpt lat="-34.090583111583314" lon="-71.97059552657849"><ele>63.0</ele><time>2026-04-02T20:26:49Z</time></trkpt><trkpt lat="-34.090637598314416" lon="-71.97065464931876"><ele>63.0</ele><time>2026-04-02T20:26:54Z</time></trkpt><trkpt lat="-34.09069008489635" lon="-71.97070651665088"><ele>63.0</ele><time>2026-04-02T20:27:01Z</time></trkpt><trkpt lat="-34.090734507824145" lon="-71.97077405177265"><ele>63.0</ele><time>2026-04-02T20:27:17Z</time></trkpt><trkpt lat="-34.09081046998124" lon="-71.97079883481408"><ele>57.285714285714285</ele><time>2026-04-02T20:27:28Z</time></trkpt><trkpt lat="-34.090844153836755" lon="-71.97086472598886"><ele>51.57142857142857</ele><time>2026-04-02T20:27:38Z</time></trkpt><trkpt lat="-34.090905412544814" lon="-71.9709169517996"><ele>45.85714285714286</ele><time>2026-04-02T20:27:46Z</time></trkpt><trkpt lat="-34.09093594928107" lon="-71.97098575601125"><ele>40.14285714285714</ele><time>2026-04-02T20:28:04Z</time></trkpt><trkpt lat="-34.090985909567934" lon="-71.9710325515289"><ele>34.42857142857143</ele><time>2026-04-02T20:28:12Z</time></trkpt><trkpt lat="-34.091050951703046" lon="-71.971064148541"><ele>28.714285714285715</ele><time>2026-04-02T20:28:20Z</time></trkpt><trkpt lat="-34.091120161678056" lon="-71.97112896968349"><ele>23.0</ele><time>2026-04-02T20:28:44Z</time></trkpt><trkpt lat="-34.091183962878446" lon="-71.971158631574"><ele>23.0</ele><time>2026-04-02T20:29:00Z</time></trkpt><trkpt lat="-34.09118502032375" lon="-71.97125668930858"><ele>23.0</ele><time>2026-04-02T20:29:58Z</time></trkpt><trkpt lat="-34.091159982331504" lon="-71.97141618273055"><ele>23.0</ele><time>2026-04-02T20:30:20Z</time></trkpt><trkpt lat="-34.091162399634655" lon="-71.97132622299242"><ele>23.0</ele><time>2026-04-02T20:31:13Z</time></trkpt><trkpt lat="-34.09120631439201" lon="-71.97140588866849"><ele>23.0</ele><time>2026-04-02T20:34:35Z</time></trkpt><trkpt lat="-34.09126207183939" lon="-71.97135877991656"><ele>23.0</ele><time>2026-04-02T20:34:48Z</time></trkpt><trkpt lat="-34.09132199700139" lon="-71.97133466831156"><ele>23.0</ele><time>2026-04-02T20:34:58Z</time></trkpt><trkpt lat="-34.09139133717724" lon="-71.97130218426754"><ele>23.0</ele><time>2026-04-02T20:35:03Z</time></trkpt><trkpt lat="-34.091469321865375" lon="-71.97131435975625"><ele>23.0</ele><time>2026-04-02T20:35:12Z</time></trkpt><trkpt lat="-34.09141228907814" lon="-71.97136141577157"><ele>23.0</ele><time>2026-04-02T20:35:46Z</time></trkpt><trkpt lat="-34.09147135014609" lon="-71.97144727486814"><ele>23.0</ele><time>2026-04-02T20:38:42Z</time></trkpt><trkpt lat="-34.09153973990045" lon="-71.97145649087025"><ele>23.0</ele><time>2026-04-02T20:38:46Z</time></trkpt><trkpt lat="-34.09160544445823" lon="-71.97147941742102"><ele>23.0</ele><time>2026-04-02T20:39:04Z</time></trkpt><trkpt lat="-34.09157019898523" lon="-71.97154998020943"><ele>23.0</ele><time>2026-04-02T20:39:58Z</time></trkpt><trkpt lat="-34.091595339703574" lon="-71.97162172616552"><ele>23.0</ele><time>2026-04-02T20:40:03Z</time></trkpt><trkpt lat="-34.09161417118867" lon="-71.97169629755565"><ele>23.0</ele><time>2026-04-02T20:40:09Z</time></trkpt><trkpt lat="-34.09165660323371" lon="-71.97177700038468"><ele>23.0</ele><time>2026-04-02T20:40:17Z</time></trkpt><trkpt lat="-34.09169997291103" lon="-71.97183653263407"><ele>23.0</ele><time>2026-04-02T20:40:23Z</time></trkpt><trkpt lat="-34.0917600996564" lon="-71.97187387265629"><ele>23.0</ele><time>2026-04-02T20:40:30Z</time></trkpt><trkpt lat="-34.0917656127863" lon="-71.97177617557284"><ele>21.0</ele><time>2026-04-02T20:43:54Z</time></trkpt><trkpt lat="-34.09183844097642" lon="-71.97179563900043"><ele>19.0</ele><time>2026-04-02T20:44:02Z</time></trkpt><trkpt lat="-34.09187335223317" lon="-71.97186413818788"><ele>17.0</ele><time>2026-04-02T20:44:10Z</time></trkpt><trkpt lat="-34.09194018834431" lon="-71.97188979206273"><ele>15.0</ele><time>2026-04-02T20:44:31Z</time></trkpt><trkpt lat="-34.09201354347712" lon="-71.97193318091992"><ele>13.0</ele><time>2026-04-02T20:44:34Z</time></trkpt><trkpt lat="-34.09207932971225" lon="-71.97195585516897"><ele>11.0</ele><time>2026-04-02T20:44:39Z</time></trkpt><trkpt lat="-34.09216016211358" lon="-71.97193716150103"><ele>9.0</ele><time>2026-04-02T20:44:42Z</time></trkpt><trkpt lat="-34.09224557322948" lon="-71.97191917306748"><ele>9.0</ele><time>2026-04-02T20:44:45Z</time></trkpt><trkpt lat="-34.092333472941874" lon="-71.97187043642266"><ele>9.0</ele><time>2026-04-02T20:44:48Z</time></trkpt><trkpt lat="-34.09240248302476" lon="-71.97187016827733"><ele>9.0</ele><time>2026-04-02T20:44:52Z</time></trkpt><trkpt lat="-34.09246905554809" lon="-71.97186821279706"><ele>9.0</ele><time>2026-04-02T20:44:53Z</time></trkpt><trkpt lat="-34.09257355046035" lon="-71.9719241021779"><ele>9.0</ele><time>2026-04-02T20:44:56Z</time></trkpt><trkpt lat="-34.09260434993281" lon="-71.97183732290746"><ele>9.0</ele><time>2026-04-02T20:45:08Z</time></trkpt><trkpt lat="-34.0925280525523" lon="-71.97185661309418"><ele>9.428571428571429</ele><time>2026-04-02T20:45:25Z</time></trkpt><trkpt lat="-34.09254374114276" lon="-71.97193123078914"><ele>9.857142857142858</ele><time>2026-04-02T20:45:33Z</time></trkpt><trkpt lat="-34.09251757457241" lon="-71.9720078004374"><ele>10.285714285714285</ele><time>2026-04-02T20:45:45Z</time></trkpt><trkpt lat="-34.092575455307305" lon="-71.97204724025107"><ele>10.714285714285715</ele><time>2026-04-02T20:45:51Z</time></trkpt><trkpt lat="-34.09263595788541" lon="-71.97208368957403"><ele>11.142857142857142</ele><time>2026-04-02T20:45:56Z</time></trkpt><trkpt lat="-34.09269740821547" lon="-71.97212111398105"><ele>11.571428571428571</ele><time>2026-04-02T20:46:01Z</time></trkpt><trkpt lat="-34.09276148038989" lon="-71.97214515841009"><ele>12.0</ele><time>2026-04-02T20:46:08Z</time></trkpt><trkpt lat="-34.09281830074196" lon="-71.97219771672924"><ele>11.999999999999998</ele><time>2026-04-02T20:46:13Z</time></trkpt><trkpt lat="-34.09286704155453" lon="-71.9722539081791"><ele>12.0</ele><time>2026-04-02T20:46:18Z</time></trkpt><trkpt lat="-34.092921833428015" lon="-71.97229153143454"><ele>12.0</ele><time>2026-04-02T20:46:24Z</time></trkpt><trkpt lat="-34.09298169409119" lon="-71.97233911554567"><ele>12.0</ele><time>2026-04-02T20:46:28Z</time></trkpt><trkpt lat="-34.09304183572257" lon="-71.9723753515692"><ele>12.0</ele><time>2026-04-02T20:46:32Z</time></trkpt><trkpt lat="-34.09311892570307" lon="-71.97242804647622"><ele>11.999999999999998</ele><time>2026-04-02T20:46:36Z</time></trkpt><trkpt lat="-34.0931770757646" lon="-71.97245974889258"><ele>12.0</ele><time>2026-04-02T20:46:45Z</time></trkpt><trkpt lat="-34.09322715657212" lon="-71.972509318852"><ele>11.428571428571427</ele><time>2026-04-02T20:46:49Z</time></trkpt><trkpt lat="-34.093285998115945" lon="-71.97255825531191"><ele>10.857142857142858</ele><time>2026-04-02T20:46:56Z</time></trkpt><trkpt lat="-34.09334320536224" lon="-71.97261193494099"><ele>10.285714285714285</ele><time>2026-04-02T20:47:04Z</time></trkpt><trkpt lat="-34.09339846095682" lon="-71.97267220749401"><ele>9.714285714285714</ele><time>2026-04-02T20:47:09Z</time></trkpt><trkpt lat="-34.09342742801028" lon="-71.97274052140469"><ele>9.142857142857142</ele><time>2026-04-02T20:47:15Z</time></trkpt><trkpt lat="-34.093489854667204" lon="-71.97277656432715"><ele>8.571428571428571</ele><time>2026-04-02T20:47:22Z</time></trkpt><trkpt lat="-34.09355682174763" lon="-71.97281378123208"><ele>8.0</ele><time>2026-04-02T20:47:29Z</time></trkpt><trkpt lat="-34.09359061334675" lon="-71.97290206717423"><ele>8.0</ele><time>2026-04-02T20:47:35Z</time></trkpt><trkpt lat="-34.09362940838586" lon="-71.97296584421335"><ele>7.999999999999999</ele><time>2026-04-02T20:47:44Z</time></trkpt><trkpt lat="-34.09369703355849" lon="-71.97299554518078"><ele>8.0</ele><time>2026-04-02T20:47:56Z</time></trkpt><trkpt lat="-34.093762984102334" lon="-71.973019745456"><ele>8.0</ele><time>2026-04-02T20:48:17Z</time></trkpt><trkpt lat="-34.09382622190581" lon="-71.97303366602593"><ele>7.999999999999999</ele><time>2026-04-02T20:48:24Z</time></trkpt><trkpt lat="-34.093887745075065" lon="-71.97306432934289"><ele>8.0</ele><time>2026-04-02T20:48:38Z</time></trkpt><trkpt lat="-34.093939436977934" lon="-71.97310892073943"><ele>8.0</ele><time>2026-04-02T20:48:51Z</time></trkpt><trkpt lat="-34.09399001561921" lon="-71.97316705770372"><ele>8.0</ele><time>2026-04-02T20:49:01Z</time></trkpt><trkpt lat="-34.0940513967603" lon="-71.97321482759625"><ele>7.999999999999999</ele><time>2026-04-02T20:49:18Z</time></trkpt><trkpt lat="-34.09410463326866" lon="-71.97327229359115"><ele>8.0</ele><time>2026-04-02T20:49:28Z</time></trkpt><trkpt lat="-34.09419439574732" lon="-71.97330344925132"><ele>8.0</ele><time>2026-04-02T20:49:49Z</time></trkpt><trkpt lat="-34.094251352615295" lon="-71.97335771119677"><ele>7.999999999999999</ele><time>2026-04-02T20:49:58Z</time></trkpt><trkpt lat="-34.094312084101546" lon="-71.97338734270984"><ele>8.0</ele><time>2026-04-02T20:50:16Z</time></trkpt><trkpt lat="-34.09434675316004" lon="-71.97345080204276"><ele>8.0</ele><time>2026-04-02T20:50:21Z</time></trkpt><trkpt lat="-34.09442021338655" lon="-71.97347284468364"><ele>6.857142857142857</ele><time>2026-04-02T20:50:27Z</time></trkpt><trkpt lat="-34.09445334845295" lon="-71.97354209114648"><ele>5.7142857142857135</ele><time>2026-04-02T20:50:33Z</time></trkpt><trkpt lat="-34.09451043971299" lon="-71.97357730238451"><ele>4.571428571428571</ele><time>2026-04-02T20:50:45Z</time></trkpt><trkpt lat="-34.09454519475236" lon="-71.97365508220261"><ele>3.4285714285714284</ele><time>2026-04-02T20:50:57Z</time></trkpt><trkpt lat="-34.09457061907499" lon="-71.973735471712"><ele>2.2857142857142856</ele><time>2026-04-02T20:51:03Z</time></trkpt><trkpt lat="-34.09459802989152" lon="-71.9738059957508"><ele>1.1428571428571428</ele><time>2026-04-02T20:51:08Z</time></trkpt><trkpt lat="-34.09463111000209" lon="-71.97387401008857"><ele>0.0</ele><time>2026-04-02T20:51:14Z</time></trkpt><trkpt lat="-34.09466043842635" lon="-71.97394910390938"><ele>0.0</ele><time>2026-04-02T20:51:21Z</time></trkpt><trkpt lat="-34.094697777163866" lon="-71.97401692498832"><ele>0.0</ele><time>2026-04-02T20:51:26Z</time></trkpt><trkpt lat="-34.09473086289204" lon="-71.97409406755743"><ele>0.0</ele><time>2026-04-02T20:51:32Z</time></trkpt><trkpt lat="-34.09476515493686" lon="-71.97415996895174"><ele>0.0</ele><time>2026-04-02T20:51:38Z</time></trkpt><trkpt lat="-34.09479987632873" lon="-71.97422799132323"><ele>0.0</ele><time>2026-04-02T20:51:44Z</time></trkpt><trkpt lat="-34.09482301458054" lon="-71.9743083271618"><ele>0.0</ele><time>2026-04-02T20:51:50Z</time></trkpt><trkpt lat="-34.09483990582805" lon="-71.97439351484574"><ele>0.0</ele><time>2026-04-02T20:51:56Z</time></trkpt><trkpt lat="-34.09485690732413" lon="-71.97446877646956"><ele>0.7142857142857143</ele><time>2026-04-02T20:52:02Z</time></trkpt><trkpt lat="-34.09488112622043" lon="-71.97454876208981"><ele>1.4285714285714286</ele><time>2026-04-02T20:52:09Z</time></trkpt><trkpt lat="-34.09488492949087" lon="-71.97463060863846"><ele>2.142857142857143</ele><time>2026-04-02T20:52:16Z</time></trkpt><trkpt lat="-34.09487934960045" lon="-71.9747120168547"><ele>2.857142857142857</ele><time>2026-04-02T20:52:23Z</time></trkpt><trkpt lat="-34.094896716799575" lon="-71.97479868709686"><ele>3.5714285714285716</ele><time>2026-04-02T20:52:30Z</time></trkpt><trkpt lat="-34.094884539589266" lon="-71.97488260032905"><ele>4.285714285714286</ele><time>2026-04-02T20:52:38Z</time></trkpt><trkpt lat="-34.09486686283843" lon="-71.974962358416"><ele>5.0</ele><time>2026-04-02T20:52:45Z</time></trkpt><trkpt lat="-34.094862520615955" lon="-71.97504846563949"><ele>5.714285714285714</ele><time>2026-04-02T20:52:52Z</time></trkpt><trkpt lat="-34.09486246510947" lon="-71.97513482951143"><ele>6.428571428571429</ele><time>2026-04-02T20:52:59Z</time></trkpt><trkpt lat="-34.09489449496653" lon="-71.97521287163235"><ele>7.142857142857142</ele><time>2026-04-02T20:53:06Z</time></trkpt><trkpt lat="-34.094946329012934" lon="-71.97527260399687"><ele>7.857142857142858</ele><time>2026-04-02T20:53:14Z</time></trkpt><trkpt lat="-34.0949812268917" lon="-71.97534543649205"><ele>8.571428571428571</ele><time>2026-04-02T20:53:30Z</time></trkpt><trkpt lat="-34.094992184772224" lon="-71.97543334546206"><ele>9.285714285714285</ele><time>2026-04-02T20:53:37Z</time></trkpt><trkpt lat="-34.09499211850463" lon="-71.97551301667312"><ele>10.0</ele><time>2026-04-02T20:53:45Z</time></trkpt><trkpt lat="-34.09495970201116" lon="-71.97558672559187"><ele>10.571428571428571</ele><time>2026-04-02T20:53:52Z</time></trkpt><trkpt lat="-34.09497266896162" lon="-71.97567170860795"><ele>11.142857142857142</ele><time>2026-04-02T20:53:57Z</time></trkpt><trkpt lat="-34.095027114719464" lon="-71.97572640003601"><ele>11.714285714285715</ele><time>2026-04-02T20:54:00Z</time></trkpt><trkpt lat="-34.094958588396636" lon="-71.97572892537231"><ele>12.285714285714285</ele><time>2026-04-02T20:54:03Z</time></trkpt><trkpt lat="-34.09500199926367" lon="-71.97578676636934"><ele>12.857142857142858</ele><time>2026-04-02T20:54:09Z</time></trkpt><trkpt lat="-34.09504713115364" lon="-71.97588445746595"><ele>13.428571428571429</ele><time>2026-04-02T20:54:15Z</time></trkpt><trkpt lat="-34.095086395912354" lon="-71.97594610986869"><ele>14.0</ele><time>2026-04-02T20:54:17Z</time></trkpt><trkpt lat="-34.09512059023113" lon="-71.97603992201125"><ele>14.000000000000002</ele><time>2026-04-02T20:54:19Z</time></trkpt><trkpt lat="-34.09515037636905" lon="-71.9761176070161"><ele>14.0</ele><time>2026-04-02T20:54:21Z</time></trkpt><trkpt lat="-34.09520351439671" lon="-71.97617209231625"><ele>14.0</ele><time>2026-04-02T20:54:24Z</time></trkpt><trkpt lat="-34.09525083825638" lon="-71.97627611007658"><ele>14.0</ele><time>2026-04-02T20:54:27Z</time></trkpt><trkpt lat="-34.09531274605967" lon="-71.97636618141955"><ele>14.000000000000002</ele><time>2026-04-02T20:54:30Z</time></trkpt><trkpt lat="-34.095330966897386" lon="-71.97644190579064"><ele>14.0</ele><time>2026-04-02T20:54:32Z</time></trkpt><trkpt lat="-34.09538648551457" lon="-71.97650932394505"><ele>14.0</ele><time>2026-04-02T20:54:35Z</time></trkpt><trkpt lat="-34.095322897994144" lon="-71.97652725006695"><ele>14.0</ele><time>2026-04-02T20:54:54Z</time></trkpt><trkpt lat="-34.095261485957565" lon="-71.97657615968083"><ele>14.0</ele><time>2026-04-02T20:55:02Z</time></trkpt><trkpt lat="-34.09532610705242" lon="-71.97656567366487"><ele>14.0</ele><time>2026-04-02T20:55:58Z</time></trkpt><trkpt lat="-34.095392027717644" lon="-71.97657243870344"><ele>14.0</ele><time>2026-04-02T20:56:05Z</time></trkpt><trkpt lat="-34.095465640346156" lon="-71.9765886938645"><ele>14.0</ele><time>2026-04-02T20:56:12Z</time></trkpt><trkpt lat="-34.09552435303762" lon="-71.97662523338911"><ele>14.0</ele><time>2026-04-02T20:56:19Z</time></trkpt><trkpt lat="-34.095599922486926" lon="-71.97661347567237"><ele>14.0</ele><time>2026-04-02T20:56:26Z</time></trkpt><trkpt lat="-34.09567105814145" lon="-71.97661805236542"><ele>14.0</ele><time>2026-04-02T20:56:30Z</time></trkpt><trkpt lat="-34.095737035316304" lon="-71.97663673967374"><ele>14.0</ele><time>2026-04-02T20:56:41Z</time></trkpt><trkpt lat="-34.09580247679826" lon="-71.9766179466234"><ele>14.0</ele><time>2026-04-02T20:56:57Z</time></trkpt><trkpt lat="-34.09587431314469" lon="-71.9766128601769"><ele>14.0</ele><time>2026-04-02T20:57:03Z</time></trkpt><trkpt lat="-34.095943878817266" lon="-71.97663503502491"><ele>14.0</ele><time>2026-04-02T20:57:11Z</time></trkpt><trkpt lat="-34.09599496231925" lon="-71.97658383488718"><ele>14.0</ele><time>2026-04-02T20:57:26Z</time></trkpt><trkpt lat="-34.09606666423547" lon="-71.9765596689183"><ele>14.571428571428571</ele><time>2026-04-02T20:57:32Z</time></trkpt><trkpt lat="-34.09605830132416" lon="-71.97647841685288"><ele>15.142857142857142</ele><time>2026-04-02T20:57:53Z</time></trkpt><trkpt lat="-34.09611951978234" lon="-71.97645527363866"><ele>15.714285714285715</ele><time>2026-04-02T20:58:01Z</time></trkpt><trkpt lat="-34.0961785407687" lon="-71.97640210953719"><ele>16.285714285714285</ele><time>2026-04-02T20:58:14Z</time></trkpt><trkpt lat="-34.096249409987706" lon="-71.97636040443419"><ele>16.857142857142858</ele><time>2026-04-02T20:58:29Z</time></trkpt><trkpt lat="-34.09631340241498" lon="-71.97631228980313"><ele>17.42857142857143</ele><time>2026-04-02T20:58:39Z</time></trkpt><trkpt lat="-34.09638020816548" lon="-71.97630182638076"><ele>18.0</ele><time>2026-04-02T20:58:49Z</time></trkpt><trkpt lat="-34.09643318920955" lon="-71.9762518822404"><ele>18.000000000000004</ele><time>2026-04-02T20:59:09Z</time></trkpt><trkpt lat="-34.09635724506381" lon="-71.97619056135034"><ele>18.0</ele><time>2026-04-02T20:59:36Z</time></trkpt><trkpt lat="-34.096299871679975" lon="-71.97615544231886"><ele>18.0</ele><time>2026-04-02T20:59:40Z</time></trkpt><trkpt lat="-34.09623385473495" lon="-71.97612559260222"><ele>18.0</ele><time>2026-04-02T20:59:54Z</time></trkpt><trkpt lat="-34.096164053290615" lon="-71.97614475865282"><ele>18.0</ele><time>2026-04-02T21:00:01Z</time></trkpt><trkpt lat="-34.09609822323826" lon="-71.97616366761163"><ele>18.000000000000004</ele><time>2026-04-02T21:00:08Z</time></trkpt><trkpt lat="-34.09603523762157" lon="-71.97614768418735"><ele>18.0</ele><time>2026-04-02T21:00:13Z</time></trkpt><trkpt lat="-34.09597074796487" lon="-71.97612403685625"><ele>18.000000000000004</ele><time>2026-04-02T21:00:21Z</time></trkpt><trkpt lat="-34.095906862592855" lon="-71.9761200248369"><ele>18.0</ele><time>2026-04-02T21:00:31Z</time></trkpt><trkpt lat="-34.09585228364255" lon="-71.97606718982817"><ele>18.0</ele><time>2026-04-02T21:00:39Z</time></trkpt><trkpt lat="-34.09581637599589" lon="-71.9759962253683"><ele>18.0</ele><time>2026-04-02T21:01:06Z</time></trkpt><trkpt lat="-34.09574867418691" lon="-71.97596858179892"><ele>18.0</ele><time>2026-04-02T21:01:10Z</time></trkpt><trkpt lat="-34.09569325736995" lon="-71.97592627360625"><ele>18.000000000000004</ele><time>2026-04-02T21:01:14Z</time></trkpt><trkpt lat="-34.09563970604753" lon="-71.97587372099412"><ele>18.0</ele><time>2026-04-02T21:01:19Z</time></trkpt><trkpt lat="-34.09561901278661" lon="-71.9757970560781"><ele>18.000000000000004</ele><time>2026-04-02T21:01:27Z</time></trkpt><trkpt lat="-34.09566824556204" lon="-71.97574304115652"><ele>18.0</ele><time>2026-04-02T21:01:37Z</time></trkpt><trkpt lat="-34.09573455331482" lon="-71.97576986899197"><ele>18.0</ele><time>2026-04-02T21:01:41Z</time></trkpt><trkpt lat="-34.09579789390591" lon="-71.97580647006677"><ele>18.0</ele><time>2026-04-02T21:01:47Z</time></trkpt><trkpt lat="-34.0958528431169" lon="-71.97575511749172"><ele>18.0</ele><time>2026-04-02T21:01:59Z</time></trkpt><trkpt lat="-34.095910305213145" lon="-71.97570526626689"><ele>18.000000000000004</ele><time>2026-04-02T21:02:11Z</time></trkpt><trkpt lat="-34.095972864785615" lon="-71.97566901275648"><ele>18.0</ele><time>2026-04-02T21:02:18Z</time></trkpt><trkpt lat="-34.09599268499529" lon="-71.97558905524171"><ele>21.571428571428573</ele><time>2026-04-02T21:02:26Z</time></trkpt><trkpt lat="-34.096030845069706" lon="-71.97552379437433"><ele>25.142857142857146</ele><time>2026-04-02T21:02:34Z</time></trkpt><trkpt lat="-34.0960482833375" lon="-71.97544920176493"><ele>28.714285714285715</ele><time>2026-04-02T21:02:44Z</time></trkpt><trkpt lat="-34.09610006131211" lon="-71.975399279729"><ele>32.28571428571429</ele><time>2026-04-02T21:03:43Z</time></trkpt><trkpt lat="-34.09603665759184" lon="-71.97535071844398"><ele>35.85714285714286</ele><time>2026-04-02T21:04:08Z</time></trkpt><trkpt lat="-34.09600648039219" lon="-71.9752708793171"><ele>39.42857142857143</ele><time>2026-04-02T21:04:15Z</time></trkpt><trkpt lat="-34.09598684213285" lon="-71.97519192297383"><ele>43.0</ele><time>2026-04-02T21:04:21Z</time></trkpt><trkpt lat="-34.09596262654175" lon="-71.97510728568835"><ele>43.00000000000001</ele><time>2026-04-02T21:04:30Z</time></trkpt><trkpt lat="-34.09596251320734" lon="-71.97502257479368"><ele>43.0</ele><time>2026-04-02T21:04:39Z</time></trkpt><trkpt lat="-34.095998027283315" lon="-71.97495537693803"><ele>43.0</ele><time>2026-04-02T21:05:49Z</time></trkpt><trkpt lat="-34.096026955092675" lon="-71.9748774337416"><ele>43.0</ele><time>2026-04-02T21:05:57Z</time></trkpt><trkpt lat="-34.096061952580136" lon="-71.97480934810766"><ele>43.0</ele><time>2026-04-02T21:06:07Z</time></trkpt><trkpt lat="-34.09613233341266" lon="-71.97477671249155"><ele>43.00000000000001</ele><time>2026-04-02T21:06:20Z</time></trkpt><trkpt lat="-34.09618696338083" lon="-71.97473383119542"><ele>43.0</ele><time>2026-04-02T21:06:48Z</time></trkpt><trkpt lat="-34.09624129382455" lon="-71.97468087986799"><ele>46.0</ele><time>2026-04-02T21:07:03Z</time></trkpt><trkpt lat="-34.0963063481585" lon="-71.97467021897417"><ele>49.0</ele><time>2026-04-02T21:07:11Z</time></trkpt><trkpt lat="-34.096360561664596" lon="-71.97462914254893"><ele>52.0</ele><time>2026-04-02T21:07:22Z</time></trkpt><trkpt lat="-34.096374786745784" lon="-71.97454608451979"><ele>55.0</ele><time>2026-04-02T21:07:29Z</time></trkpt><trkpt lat="-34.09638818433106" lon="-71.97446289592116"><ele>57.99999999999999</ele><time>2026-04-02T21:07:37Z</time></trkpt><trkpt lat="-34.09637218707573" lon="-71.97438302154043"><ele>61.0</ele><time>2026-04-02T21:07:45Z</time></trkpt><trkpt lat="-34.09639422028576" lon="-71.97430493759157"><ele>64.0</ele><time>2026-04-02T21:07:52Z</time></trkpt><trkpt lat="-34.09643502735821" lon="-71.97423355073067"><ele>64.28571428571428</ele><time>2026-04-02T21:07:59Z</time></trkpt><trkpt lat="-34.09649415385117" lon="-71.97418460615164"><ele>64.57142857142857</ele><time>2026-04-02T21:08:05Z</time></trkpt><trkpt lat="-34.096559257484365" lon="-71.97415173667416"><ele>64.85714285714286</ele><time>2026-04-02T21:08:24Z</time></trkpt><trkpt lat="-34.096605758761385" lon="-71.97409787359311"><ele>65.14285714285714</ele><time>2026-04-02T21:08:30Z</time></trkpt><trkpt lat="-34.09666519796481" lon="-71.97404325933485"><ele>65.42857142857143</ele><time>2026-04-02T21:08:37Z</time></trkpt><trkpt lat="-34.09669580252124" lon="-71.9739539144047"><ele>65.71428571428571</ele><time>2026-04-02T21:08:44Z</time></trkpt><trkpt lat="-34.09671579321012" lon="-71.97388031991166"><ele>66.0</ele><time>2026-04-02T21:08:52Z</time></trkpt><trkpt lat="-34.09673399080889" lon="-71.97380644635209"><ele>66.0</ele><time>2026-04-02T21:08:59Z</time></trkpt><trkpt lat="-34.09676382115117" lon="-71.97369658849928"><ele>66.0</ele><time>2026-04-02T21:09:40Z</time></trkpt><trkpt lat="-34.09674517631059" lon="-71.97361284033866"><ele>66.0</ele><time>2026-04-02T21:09:47Z</time></trkpt><trkpt lat="-34.0966894901801" lon="-71.97357362052942"><ele>66.0</ele><time>2026-04-02T21:09:53Z</time></trkpt><trkpt lat="-34.096635530240405" lon="-71.97352006057828"><ele>66.0</ele><time>2026-04-02T21:10:00Z</time></trkpt><trkpt lat="-34.09658777233688" lon="-71.9734623039287"><ele>66.0</ele><time>2026-04-02T21:10:06Z</time></trkpt><trkpt lat="-34.09657806006389" lon="-71.97338136430079"><ele>66.0</ele><time>2026-04-02T21:10:14Z</time></trkpt><trkpt lat="-34.09656796815858" lon="-71.97329595421895"><ele>68.28571428571428</ele><time>2026-04-02T21:10:25Z</time></trkpt><trkpt lat="-34.09649695847207" lon="-71.97324445904826"><ele>70.57142857142857</ele><time>2026-04-02T21:10:30Z</time></trkpt><trkpt lat="-34.09645409728688" lon="-71.97318643916564"><ele>72.85714285714286</ele><time>2026-04-02T21:10:36Z</time></trkpt><trkpt lat="-34.096393779355274" lon="-71.97314455615921"><ele>75.14285714285714</ele><time>2026-04-02T21:10:39Z</time></trkpt><trkpt lat="-34.09633214504917" lon="-71.97305440572006"><ele>77.42857142857143</ele><time>2026-04-02T21:10:52Z</time></trkpt><trkpt lat="-34.096269009243784" lon="-71.97303904708407"><ele>79.71428571428571</ele><time>2026-04-02T21:11:03Z</time></trkpt><trkpt lat="-34.096222514832775" lon="-71.97297617821309"><ele>82.0</ele><time>2026-04-02T21:11:06Z</time></trkpt><trkpt lat="-34.0961693026065" lon="-71.9729264073088"><ele>81.99999999999999</ele><time>2026-04-02T21:11:17Z</time></trkpt><trkpt lat="-34.09612595848503" lon="-71.97285813706152"><ele>82.0</ele><time>2026-04-02T21:11:26Z</time></trkpt><trkpt lat="-34.096141221906635" lon="-71.97277914663468"><ele>82.0</ele><time>2026-04-02T21:11:33Z</time></trkpt><trkpt lat="-34.096147959557534" lon="-71.97269748172835"><ele>82.0</ele><time>2026-04-02T21:11:42Z</time></trkpt><trkpt lat="-34.09619007858169" lon="-71.9726315928628"><ele>82.0</ele><time>2026-04-02T21:11:49Z</time></trkpt><trkpt lat="-34.09622009760704" lon="-71.97255503137876"><ele>81.99999999999999</ele><time>2026-04-02T21:11:57Z</time></trkpt><trkpt lat="-34.09627947702705" lon="-71.97249842179303"><ele>82.0</ele><time>2026-04-02T21:12:04Z</time></trkpt><trkpt lat="-34.09630196707897" lon="-71.97242265706498"><ele>85.85714285714285</ele><time>2026-04-02T21:12:12Z</time></trkpt><trkpt lat="-34.09634943866707" lon="-71.97234933091511"><ele>89.71428571428571</ele><time>2026-04-02T21:12:19Z</time></trkpt><trkpt lat="-34.09633402962088" lon="-71.97226667875321"><ele>93.57142857142857</ele><time>2026-04-02T21:12:25Z</time></trkpt><trkpt lat="-34.096307591123704" lon="-71.97219435571546"><ele>97.42857142857142</ele><time>2026-04-02T21:12:32Z</time></trkpt><trkpt lat="-34.09629828214791" lon="-71.97210429023922"><ele>101.28571428571429</ele><time>2026-04-02T21:12:40Z</time></trkpt><trkpt lat="-34.09628638789131" lon="-71.9720195675996"><ele>105.14285714285714</ele><time>2026-04-02T21:12:47Z</time></trkpt><trkpt lat="-34.096257016768945" lon="-71.97194717129108"><ele>109.0</ele><time>2026-04-02T21:12:53Z</time></trkpt><trkpt lat="-34.09626876985995" lon="-71.97187076896661"><ele>109.0</ele><time>2026-04-02T21:13:04Z</time></trkpt><trkpt lat="-34.0963117937329" lon="-71.97179801113501"><ele>109.0</ele><time>2026-04-02T21:13:14Z</time></trkpt><trkpt lat="-34.0963205773922" lon="-71.97171695065343"><ele>109.0</ele><time>2026-04-02T21:13:22Z</time></trkpt><trkpt lat="-34.096307691517794" lon="-71.97163027972059"><ele>109.0</ele><time>2026-04-02T21:13:30Z</time></trkpt><trkpt lat="-34.096310575592334" lon="-71.97153583536026"><ele>109.0</ele><time>2026-04-02T21:13:37Z</time></trkpt><trkpt lat="-34.09630438237978" lon="-71.97144403454386"><ele>109.0</ele><time>2026-04-02T21:13:49Z</time></trkpt><trkpt lat="-34.09633664051681" lon="-71.97137622041103"><ele>109.0</ele><time>2026-04-02T21:13:55Z</time></trkpt><trkpt lat="-34.096321598274336" lon="-71.97129724090539"><ele>110.85714285714286</ele><time>2026-04-02T21:14:01Z</time></trkpt><trkpt lat="-34.096282720035774" lon="-71.97122769273858"><ele>112.71428571428572</ele><time>2026-04-02T21:14:07Z</time></trkpt><trkpt lat="-34.09624692611141" lon="-71.97115731652978"><ele>114.57142857142856</ele><time>2026-04-02T21:14:13Z</time></trkpt><trkpt lat="-34.09623925945297" lon="-71.97107792666235"><ele>116.42857142857142</ele><time>2026-04-02T21:14:19Z</time></trkpt><trkpt lat="-34.09621894325409" lon="-71.97100438192919"><ele>118.28571428571428</ele><time>2026-04-02T21:14:25Z</time></trkpt><trkpt lat="-34.09619542202017" lon="-71.97093372348718"><ele>120.14285714285712</ele><time>2026-04-02T21:14:31Z</time></trkpt><trkpt lat="-34.096179008587974" lon="-71.97084876906136"><ele>121.99999999999999</ele><time>2026-04-02T21:14:37Z</time></trkpt><trkpt lat="-34.0961480136568" lon="-71.97076976634774"><ele>122.85714285714283</ele><time>2026-04-02T21:14:43Z</time></trkpt><trkpt lat="-34.096119576694115" lon="-71.9706916069044"><ele>123.71428571428571</ele><time>2026-04-02T21:14:49Z</time></trkpt><trkpt lat="-34.09606631675835" lon="-71.97064022721615"><ele>124.57142857142856</ele><time>2026-04-02T21:14:57Z</time></trkpt><trkpt lat="-34.096016480525826" lon="-71.97058119467405"><ele>125.42857142857142</ele><time>2026-04-02T21:15:04Z</time></trkpt><trkpt lat="-34.0959598590172" lon="-71.97054522536881"><ele>126.28571428571428</ele><time>2026-04-02T21:15:09Z</time></trkpt><trkpt lat="-34.09589287745943" lon="-71.97051661466598"><ele>127.14285714285714</ele><time>2026-04-02T21:15:16Z</time></trkpt><trkpt lat="-34.09583339987433" lon="-71.97048152420736"><ele>128.0</ele><time>2026-04-02T21:15:22Z</time></trkpt><trkpt lat="-34.09579297370897" lon="-71.97040921070202"><ele>127.57142857142857</ele><time>2026-04-02T21:15:30Z</time></trkpt><trkpt lat="-34.09573380849033" lon="-71.97036688152082"><ele>127.14285714285714</ele><time>2026-04-02T21:15:36Z</time></trkpt><trkpt lat="-34.09566332215792" lon="-71.97032781463481"><ele>126.71428571428571</ele><time>2026-04-02T21:15:42Z</time></trkpt><trkpt lat="-34.09561039916837" lon="-71.97027803628919"><ele>126.28571428571428</ele><time>2026-04-02T21:15:48Z</time></trkpt><trkpt lat="-34.095564740754874" lon="-71.97021322309071"><ele>125.85714285714286</ele><time>2026-04-02T21:15:55Z</time></trkpt><trkpt lat="-34.09555523545057" lon="-71.97012852686024"><ele>125.42857142857142</ele><time>2026-04-02T21:16:00Z</time></trkpt><trkpt lat="-34.095534349163344" lon="-71.97004759316503"><ele>125.0</ele><time>2026-04-02T21:16:05Z</time></trkpt><trkpt lat="-34.09548006026751" lon="-71.96999216584118"><ele>126.0</ele><time>2026-04-02T21:16:09Z</time></trkpt><trkpt lat="-34.0954409484619" lon="-71.96992563659416"><ele>127.0</ele><time>2026-04-02T21:16:15Z</time></trkpt><trkpt lat="-34.09539539476301" lon="-71.96985383856325"><ele>128.0</ele><time>2026-04-02T21:16:20Z</time></trkpt><trkpt lat="-34.09539364695915" lon="-71.9697643325923"><ele>129.0</ele><time>2026-04-02T21:16:27Z</time></trkpt><trkpt lat="-34.095384545561345" lon="-71.96968519719547"><ele>130.0</ele><time>2026-04-02T21:16:38Z</time></trkpt><trkpt lat="-34.09533693362577" lon="-71.96961834957666"><ele>131.0</ele><time>2026-04-02T21:16:43Z</time></trkpt><trkpt lat="-34.095299674878994" lon="-71.96955562406497"><ele>132.0</ele><time>2026-04-02T21:16:48Z</time></trkpt><trkpt lat="-34.095298393812214" lon="-71.96946487797749"><ele>132.0</ele><time>2026-04-02T21:16:55Z</time></trkpt><trkpt lat="-34.09526485243598" lon="-71.96939650610062"><ele>132.0</ele><time>2026-04-02T21:17:03Z</time></trkpt><trkpt lat="-34.09525509126631" lon="-71.969310811954"><ele>132.0</ele><time>2026-04-02T21:17:12Z</time></trkpt><trkpt lat="-34.095222573113354" lon="-71.96924323190866"><ele>132.0</ele><time>2026-04-02T21:17:19Z</time></trkpt><trkpt lat="-34.09520914679229" lon="-71.96916849520379"><ele>132.0</ele><time>2026-04-02T21:17:24Z</time></trkpt><trkpt lat="-34.09517383282217" lon="-71.96910471688565"><ele>132.0</ele><time>2026-04-02T21:17:30Z</time></trkpt><trkpt lat="-34.095161338227584" lon="-71.96902831015946"><ele>132.0</ele><time>2026-04-02T21:17:35Z</time></trkpt><trkpt lat="-34.09513767107922" lon="-71.96895474378971"><ele>132.42857142857142</ele><time>2026-04-02T21:17:42Z</time></trkpt><trkpt lat="-34.0951291234709" lon="-71.96887480623218"><ele>132.85714285714286</ele><time>2026-04-02T21:17:47Z</time></trkpt><trkpt lat="-34.095133043478086" lon="-71.96878013740744"><ele>133.28571428571428</ele><time>2026-04-02T21:17:54Z</time></trkpt><trkpt lat="-34.09516545590914" lon="-71.96869261291468"><ele>133.71428571428572</ele><time>2026-04-02T21:18:01Z</time></trkpt><trkpt lat="-34.09523216334139" lon="-71.968690120979"><ele>134.14285714285714</ele><time>2026-04-02T21:18:09Z</time></trkpt><trkpt lat="-34.095282337042484" lon="-71.96862986128382"><ele>134.57142857142856</ele><time>2026-04-02T21:18:16Z</time></trkpt><trkpt lat="-34.09534089956353" lon="-71.96858246689132"><ele>135.0</ele><time>2026-04-02T21:18:21Z</time></trkpt><trkpt lat="-34.09534583210626" lon="-71.96848802872537"><ele>135.0</ele><time>2026-04-02T21:18:30Z</time></trkpt><trkpt lat="-34.09533004051535" lon="-71.96840784545984"><ele>135.0</ele><time>2026-04-02T21:18:37Z</time></trkpt><trkpt lat="-34.0952993521549" lon="-71.96831968038597"><ele>135.0</ele><time>2026-04-02T21:18:43Z</time></trkpt><trkpt lat="-34.09527953550094" lon="-71.96823639396185"><ele>135.0</ele><time>2026-04-02T21:18:47Z</time></trkpt><trkpt lat="-34.095315180996344" lon="-71.9681657869658"><ele>135.0</ele><time>2026-04-02T21:18:53Z</time></trkpt><trkpt lat="-34.095345154549385" lon="-71.96808184855911"><ele>135.0</ele><time>2026-04-02T21:18:58Z</time></trkpt><trkpt lat="-34.095397456775615" lon="-71.96802474809584"><ele>135.0</ele><time>2026-04-02T21:19:05Z</time></trkpt><trkpt lat="-34.09546752476913" lon="-71.96799497445222"><ele>135.57142857142856</ele><time>2026-04-02T21:19:11Z</time></trkpt><trkpt lat="-34.09551797300084" lon="-71.9679479595232"><ele>136.14285714285714</ele><time>2026-04-02T21:19:16Z</time></trkpt><trkpt lat="-34.09556428224202" lon="-71.96789509948603"><ele>136.71428571428572</ele><time>2026-04-02T21:19:22Z</time></trkpt><trkpt lat="-34.09557072755262" lon="-71.96781062010182"><ele>137.28571428571428</ele><time>2026-04-02T21:19:30Z</time></trkpt><trkpt lat="-34.095566956439704" lon="-71.96773316398676"><ele>137.85714285714286</ele><time>2026-04-02T21:19:37Z</time></trkpt><trkpt lat="-34.09556201709417" lon="-71.96765425458774"><ele>138.42857142857142</ele><time>2026-04-02T21:19:43Z</time></trkpt><trkpt lat="-34.095502722256384" lon="-71.96761651331695"><ele>139.0</ele><time>2026-04-02T21:19:50Z</time></trkpt><trkpt lat="-34.09543725833917" lon="-71.96759899593312"><ele>139.0</ele><time>2026-04-02T21:19:55Z</time></trkpt><trkpt lat="-34.095370473463866" lon="-71.96757512789742"><ele>139.0</ele><time>2026-04-02T21:20:00Z</time></trkpt><trkpt lat="-34.09531037086667" lon="-71.96752401137535"><ele>139.0</ele><time>2026-04-02T21:20:05Z</time></trkpt><trkpt lat="-34.09524454131381" lon="-71.96749625712748"><ele>139.0</ele><time>2026-04-02T21:20:11Z</time></trkpt><trkpt lat="-34.09517606533495" lon="-71.96746740610055"><ele>139.0</ele><time>2026-04-02T21:20:18Z</time></trkpt><trkpt lat="-34.09510798404597" lon="-71.96748598260788"><ele>139.0</ele><time>2026-04-02T21:20:27Z</time></trkpt><trkpt lat="-34.09507265829334" lon="-71.96755505044443"><ele>139.0</ele><time>2026-04-02T21:20:32Z</time></trkpt><trkpt lat="-34.095017755422035" lon="-71.96759622310084"><ele>139.0</ele><time>2026-04-02T21:20:38Z</time></trkpt><trkpt lat="-34.09495251249353" lon="-71.96762029972352"><ele>139.0</ele><time>2026-04-02T21:20:45Z</time></trkpt><trkpt lat="-34.0948905053982" lon="-71.96760381928509"><ele>139.0</ele><time>2026-04-02T21:20:51Z</time></trkpt><trkpt lat="-34.09483800391845" lon="-71.96755878708197"><ele>139.0</ele><time>2026-04-02T21:20:57Z</time></trkpt><trkpt lat="-34.09477938222535" lon="-71.9675094420013"><ele>139.0</ele><time>2026-04-02T21:21:01Z</time></trkpt><trkpt lat="-34.09470533966246" lon="-71.96750896631897"><ele>139.0</ele><time>2026-04-02T21:21:06Z</time></trkpt><trkpt lat="-34.09463574777941" lon="-71.96750146668407"><ele>139.0</ele><time>2026-04-02T21:21:12Z</time></trkpt><trkpt lat="-34.09455998470833" lon="-71.96750591913626"><ele>138.71428571428572</ele><time>2026-04-02T21:21:19Z</time></trkpt><trkpt lat="-34.094488870901664" lon="-71.96751914000696"><ele>138.42857142857144</ele><time>2026-04-02T21:21:25Z</time></trkpt><trkpt lat="-34.09441390327155" lon="-71.96751569202672"><ele>138.14285714285717</ele><time>2026-04-02T21:21:32Z</time></trkpt><trkpt lat="-34.09434844594733" lon="-71.96753112844415"><ele>137.85714285714286</ele><time>2026-04-02T21:21:38Z</time></trkpt><trkpt lat="-34.094295097729415" lon="-71.96757939298354"><ele>137.57142857142858</ele><time>2026-04-02T21:21:44Z</time></trkpt><trkpt lat="-34.094231792661375" lon="-71.96758951389768"><ele>137.2857142857143</ele><time>2026-04-02T21:21:49Z</time></trkpt><trkpt lat="-34.09416492128051" lon="-71.96759619178117"><ele>137.0</ele><time>2026-04-02T21:21:56Z</time></trkpt><trkpt lat="-34.094092357033645" lon="-71.96761051145546"><ele>135.85714285714286</ele><time>2026-04-02T21:22:02Z</time></trkpt><trkpt lat="-34.09403014587646" lon="-71.9676302219713"><ele>134.71428571428572</ele><time>2026-04-02T21:22:08Z</time></trkpt><trkpt lat="-34.09395343152368" lon="-71.96764839397852"><ele>133.57142857142856</ele><time>2026-04-02T21:22:13.999Z</time></trkpt><trkpt lat="-34.093878275306295" lon="-71.96767432261225"><ele>132.42857142857144</ele><time>2026-04-02T21:22:19.999Z</time></trkpt><trkpt lat="-34.093798885961746" lon="-71.96767835819963"><ele>131.28571428571428</ele><time>2026-04-02T21:22:27Z</time></trkpt><trkpt lat="-34.0937334326666" lon="-71.96770236653927"><ele>130.14285714285714</ele><time>2026-04-02T21:22:32Z</time></trkpt><trkpt lat="-34.09366967737308" lon="-71.96771401497355"><ele>129.0</ele><time>2026-04-02T21:22:36Z</time></trkpt><trkpt lat="-34.093606283468006" lon="-71.96772435609786"><ele>128.99999999999997</ele><time>2026-04-02T21:22:41Z</time></trkpt><trkpt lat="-34.09353003305851" lon="-71.96772247743756"><ele>129.0</ele><time>2026-04-02T21:22:48Z</time></trkpt><trkpt lat="-34.09346321551712" lon="-71.96770526280879"><ele>129.0</ele><time>2026-04-02T21:22:56Z</time></trkpt><trkpt lat="-34.09339437970389" lon="-71.96764137539445"><ele>129.0</ele><time>2026-04-02T21:23:01Z</time></trkpt><trkpt lat="-34.09333127905449" lon="-71.96762685133675"><ele>129.0</ele><time>2026-04-02T21:23:04Z</time></trkpt><trkpt lat="-34.09326920975746" lon="-71.96760519456593"><ele>128.99999999999997</ele><time>2026-04-02T21:23:12Z</time></trkpt><trkpt lat="-34.09320903462528" lon="-71.9675753228653"><ele>129.0</ele><time>2026-04-02T21:23:18Z</time></trkpt><trkpt lat="-34.093142660593976" lon="-71.96757877621377"><ele>127.85714285714283</ele><time>2026-04-02T21:23:23Z</time></trkpt><trkpt lat="-34.09307236631799" lon="-71.9675945965217"><ele>126.71428571428571</ele><time>2026-04-02T21:23:29Z</time></trkpt><trkpt lat="-34.093003393464436" lon="-71.96759798737415"><ele>125.57142857142856</ele><time>2026-04-02T21:23:33Z</time></trkpt><trkpt lat="-34.09294334718988" lon="-71.96762841104852"><ele>124.42857142857142</ele><time>2026-04-02T21:23:39Z</time></trkpt><trkpt lat="-34.092876552741735" lon="-71.9676342748089"><ele>123.28571428571428</ele><time>2026-04-02T21:23:44Z</time></trkpt><trkpt lat="-34.09281157197908" lon="-71.96764804341005"><ele>122.14285714285714</ele><time>2026-04-02T21:23:51Z</time></trkpt><trkpt lat="-34.092746468874545" lon="-71.96761109070368"><ele>121.0</ele><time>2026-04-02T21:23:57Z</time></trkpt><trkpt lat="-34.09268695996028" lon="-71.96757635243826"><ele>121.0</ele><time>2026-04-02T21:24:01Z</time></trkpt><trkpt lat="-34.0926304557213" lon="-71.96752863479675"><ele>120.99999999999999</ele><time>2026-04-02T21:24:09Z</time></trkpt><trkpt lat="-34.092560271540094" lon="-71.96750846995666"><ele>121.0</ele><time>2026-04-02T21:24:14Z</time></trkpt><trkpt lat="-34.09249517801564" lon="-71.96748538999654"><ele>121.0</ele><time>2026-04-02T21:24:20Z</time></trkpt><trkpt lat="-34.092439053955964" lon="-71.96744757112776"><ele>120.99999999999999</ele><time>2026-04-02T21:24:25Z</time></trkpt><trkpt lat="-34.0923705999316" lon="-71.96741907201465"><ele>121.0</ele><time>2026-04-02T21:24:31Z</time></trkpt><trkpt lat="-34.0923044927719" lon="-71.96741199313394"><ele>121.0</ele><time>2026-04-02T21:24:36Z</time></trkpt><trkpt lat="-34.09224583310263" lon="-71.96736973222937"><ele>120.85714285714285</ele><time>2026-04-02T21:24:42Z</time></trkpt><trkpt lat="-34.09220309250717" lon="-71.96730274854565"><ele>120.7142857142857</ele><time>2026-04-02T21:24:48Z</time></trkpt><trkpt lat="-34.09215442974028" lon="-71.96724801495664"><ele>120.57142857142857</ele><time>2026-04-02T21:24:54Z</time></trkpt><trkpt lat="-34.09211412945677" lon="-71.96718948247715"><ele>120.42857142857142</ele><time>2026-04-02T21:24:59Z</time></trkpt><trkpt lat="-34.092058770882375" lon="-71.96713001300847"><ele>120.28571428571428</ele><time>2026-04-02T21:25:05Z</time></trkpt><trkpt lat="-34.091995882061354" lon="-71.9670931437245"><ele>120.14285714285714</ele><time>2026-04-02T21:25:12Z</time></trkpt><trkpt lat="-34.09193709282828" lon="-71.9670433649672"><ele>120.0</ele><time>2026-04-02T21:25:18Z</time></trkpt><trkpt lat="-34.09186920616387" lon="-71.96699860952987"><ele>120.0</ele><time>2026-04-02T21:25:23Z</time></trkpt><trkpt lat="-34.09179902459456" lon="-71.96698679257544"><ele>120.0</ele><time>2026-04-02T21:25:28Z</time></trkpt><trkpt lat="-34.09174116511995" lon="-71.96695626508307"><ele>120.0</ele><time>2026-04-02T21:25:34Z</time></trkpt><trkpt lat="-34.091678695820264" lon="-71.96692494991639"><ele>120.0</ele><time>2026-04-02T21:25:40Z</time></trkpt><trkpt lat="-34.09160833269843" lon="-71.96694452871034"><ele>120.0</ele><time>2026-04-02T21:25:47Z</time></trkpt><trkpt lat="-34.091531599431505" lon="-71.96694383672826"><ele>120.0</ele><time>2026-04-02T21:25:53Z</time></trkpt><trkpt lat="-34.091454592829415" lon="-71.96692544702421"><ele>120.0</ele><time>2026-04-02T21:25:59Z</time></trkpt><trkpt lat="-34.09138624687759" lon="-71.96691974628868"><ele>119.0</ele><time>2026-04-02T21:26:05Z</time></trkpt><trkpt lat="-34.091322349464704" lon="-71.96689870500458"><ele>118.0</ele><time>2026-04-02T21:26:10Z</time></trkpt><trkpt lat="-34.09124998799263" lon="-71.96690337624608"><ele>117.0</ele><time>2026-04-02T21:26:16Z</time></trkpt><trkpt lat="-34.09119202991113" lon="-71.96687105855777"><ele>116.0</ele><time>2026-04-02T21:26:22Z</time></trkpt><trkpt lat="-34.09112480877029" lon="-71.96683772460723"><ele>115.0</ele><time>2026-04-02T21:26:27Z</time></trkpt><trkpt lat="-34.09105477439705" lon="-71.96682048201846"><ele>114.0</ele><time>2026-04-02T21:26:34Z</time></trkpt><trkpt lat="-34.09099226801486" lon="-71.96678696464588"><ele>113.0</ele><time>2026-04-02T21:26:39Z</time></trkpt><trkpt lat="-34.0909355013763" lon="-71.96672335214578"><ele>112.71428571428572</ele><time>2026-04-02T21:26:45Z</time></trkpt><trkpt lat="-34.09087496105797" lon="-71.96668707139575"><ele>112.42857142857142</ele><time>2026-04-02T21:26:50Z</time></trkpt><trkpt lat="-34.090811819920255" lon="-71.96665166939549"><ele>112.14285714285714</ele><time>2026-04-02T21:26:57Z</time></trkpt><trkpt lat="-34.09073659245022" lon="-71.96660388579079"><ele>111.85714285714286</ele><time>2026-04-02T21:27:02Z</time></trkpt><trkpt lat="-34.090655220519075" lon="-71.96663264778519"><ele>111.57142857142858</ele><time>2026-04-02T21:27:09Z</time></trkpt><trkpt lat="-34.09058152752028" lon="-71.96662183606462"><ele>111.28571428571428</ele><time>2026-04-02T21:27:15Z</time></trkpt><trkpt lat="-34.09052632210906" lon="-71.96657501431413"><ele>111.0</ele><time>2026-04-02T21:27:22Z</time></trkpt><trkpt lat="-34.09045264122502" lon="-71.96654576410027"><ele>109.85714285714285</ele><time>2026-04-02T21:27:29Z</time></trkpt><trkpt lat="-34.090393077495506" lon="-71.96651933005055"><ele>108.71428571428572</ele><time>2026-04-02T21:27:33Z</time></trkpt><trkpt lat="-34.090347669285975" lon="-71.96645663091732"><ele>107.57142857142857</ele><time>2026-04-02T21:27:39Z</time></trkpt><trkpt lat="-34.09029687447409" lon="-71.96640658932414"><ele>106.42857142857142</ele><time>2026-04-02T21:27:45Z</time></trkpt><trkpt lat="-34.09024652783094" lon="-71.96635615648069"><ele>105.28571428571428</ele><time>2026-04-02T21:27:52Z</time></trkpt><trkpt lat="-34.0901877309329" lon="-71.96629920954686"><ele>104.14285714285714</ele><time>2026-04-02T21:27:57Z</time></trkpt><trkpt lat="-34.09015236295852" lon="-71.96623390097963"><ele>103.0</ele><time>2026-04-02T21:28:02Z</time></trkpt><trkpt lat="-34.09008812984797" lon="-71.96621845523659"><ele>102.99999999999999</ele><time>2026-04-02T21:28:07Z</time></trkpt><trkpt lat="-34.090023533341395" lon="-71.96619448451217"><ele>103.0</ele><time>2026-04-02T21:28:12Z</time></trkpt><trkpt lat="-34.089941646636575" lon="-71.96619158539109"><ele>103.0</ele><time>2026-04-02T21:28:17Z</time></trkpt><trkpt lat="-34.08987750139258" lon="-71.96616085581097"><ele>103.0</ele><time>2026-04-02T21:28:22Z</time></trkpt><trkpt lat="-34.089815474379364" lon="-71.96613653777025"><ele>103.0</ele><time>2026-04-02T21:28:29Z</time></trkpt><trkpt lat="-34.08975769290904" lon="-71.96608781368995"><ele>102.99999999999999</ele><time>2026-04-02T21:28:34Z</time></trkpt><trkpt lat="-34.089702572045745" lon="-71.96603810080171"><ele>103.0</ele><time>2026-04-02T21:28:39Z</time></trkpt><trkpt lat="-34.08964429130334" lon="-71.96600476604674"><ele>101.28571428571428</ele><time>2026-04-02T21:28:45Z</time></trkpt><trkpt lat="-34.08959411475267" lon="-71.96594253672922"><ele>99.57142857142857</ele><time>2026-04-02T21:28:51Z</time></trkpt><trkpt lat="-34.08952625320036" lon="-71.96593058761752"><ele>97.85714285714286</ele><time>2026-04-02T21:28:58Z</time></trkpt><trkpt lat="-34.08946577461621" lon="-71.96589643294996"><ele>96.14285714285714</ele><time>2026-04-02T21:29:02Z</time></trkpt><trkpt lat="-34.089410666872084" lon="-71.96584149813515"><ele>94.42857142857143</ele><time>2026-04-02T21:29:07Z</time></trkpt><trkpt lat="-34.08934947057888" lon="-71.96580795794287"><ele>92.71428571428571</ele><time>2026-04-02T21:29:14Z</time></trkpt><trkpt lat="-34.089273759166154" lon="-71.96579177313991"><ele>91.0</ele><time>2026-04-02T21:29:20Z</time></trkpt><trkpt lat="-34.08920749373175" lon="-71.96579856082467"><ele>90.85714285714286</ele><time>2026-04-02T21:29:26Z</time></trkpt><trkpt lat="-34.08914178225744" lon="-71.96580325605319"><ele>90.71428571428572</ele><time>2026-04-02T21:29:31Z</time></trkpt><trkpt lat="-34.08906474177206" lon="-71.96579594181945"><ele>90.57142857142857</ele><time>2026-04-02T21:29:38Z</time></trkpt><trkpt lat="-34.08900905333905" lon="-71.9657512796745"><ele>90.42857142857143</ele><time>2026-04-02T21:29:42Z</time></trkpt><trkpt lat="-34.0889731749253" lon="-71.96568277092368"><ele>90.28571428571429</ele><time>2026-04-02T21:29:48Z</time></trkpt><trkpt lat="-34.088944048094866" lon="-71.96559684565983"><ele>90.14285714285714</ele><time>2026-04-02T21:29:54Z</time></trkpt><trkpt lat="-34.08888117567375" lon="-71.96557605191342"><ele>90.0</ele><time>2026-04-02T21:29:59Z</time></trkpt><trkpt lat="-34.08882081810897" lon="-71.96554833290016"><ele>88.71428571428571</ele><time>2026-04-02T21:30:04Z</time></trkpt><trkpt lat="-34.08873495544276" lon="-71.96554804220894"><ele>87.42857142857143</ele><time>2026-04-02T21:30:12Z</time></trkpt><trkpt lat="-34.08866718752813" lon="-71.96556663882393"><ele>86.14285714285714</ele><time>2026-04-02T21:30:17Z</time></trkpt><trkpt lat="-34.088601364612835" lon="-71.96559139638228"><ele>84.85714285714286</ele><time>2026-04-02T21:30:22Z</time></trkpt><trkpt lat="-34.0885293487431" lon="-71.9656114719106"><ele>83.57142857142857</ele><time>2026-04-02T21:30:28Z</time></trkpt><trkpt lat="-34.08846581434508" lon="-71.96565310354306"><ele>82.28571428571429</ele><time>2026-04-02T21:30:35Z</time></trkpt><trkpt lat="-34.08843054005663" lon="-71.9657179379156"><ele>81.0</ele><time>2026-04-02T21:30:40Z</time></trkpt><trkpt lat="-34.088391478436726" lon="-71.96578213797737"><ele>81.0</ele><time>2026-04-02T21:30:45Z</time></trkpt><trkpt lat="-34.088330447179914" lon="-71.96583940920915"><ele>81.0</ele><time>2026-04-02T21:30:51Z</time></trkpt><trkpt lat="-34.0882851204791" lon="-71.96591156272817"><ele>81.0</ele><time>2026-04-02T21:31:00Z</time></trkpt><trkpt lat="-34.08820669271941" lon="-71.96594811686263"><ele>81.0</ele><time>2026-04-02T21:31:06Z</time></trkpt><trkpt lat="-34.08815497544512" lon="-71.96600767439335"><ele>81.0</ele><time>2026-04-02T21:31:13Z</time></trkpt><trkpt lat="-34.08808882748804" lon="-71.96602532904437"><ele>81.0</ele><time>2026-04-02T21:31:18Z</time></trkpt><trkpt lat="-34.088019224439485" lon="-71.96601279603385"><ele>81.0</ele><time>2026-04-02T21:31:26Z</time></trkpt><trkpt lat="-34.08795048394815" lon="-71.965987334431"><ele>78.28571428571429</ele><time>2026-04-02T21:31:31Z</time></trkpt><trkpt lat="-34.087883822677114" lon="-71.96596520664293"><ele>75.57142857142857</ele><time>2026-04-02T21:31:35Z</time></trkpt><trkpt lat="-34.087823267706476" lon="-71.96593038337933"><ele>72.85714285714286</ele><time>2026-04-02T21:31:39Z</time></trkpt><trkpt lat="-34.087755630492644" lon="-71.96593003708945"><ele>70.14285714285714</ele><time>2026-04-02T21:31:45Z</time></trkpt><trkpt lat="-34.08769887344691" lon="-71.96597368806208"><ele>67.42857142857143</ele><time>2026-04-02T21:31:55Z</time></trkpt><trkpt lat="-34.08766249569708" lon="-71.96604709058555"><ele>64.71428571428572</ele><time>2026-04-02T21:32:00Z</time></trkpt><trkpt lat="-34.08761513136647" lon="-71.96610118170777"><ele>62.0</ele><time>2026-04-02T21:32:05Z</time></trkpt><trkpt lat="-34.08754944989169" lon="-71.96611378896367"><ele>62.0</ele><time>2026-04-02T21:32:10Z</time></trkpt><trkpt lat="-34.08747780377305" lon="-71.96611810587379"><ele>62.00000000000001</ele><time>2026-04-02T21:32:17Z</time></trkpt><trkpt lat="-34.08741284053022" lon="-71.96608168518809"><ele>62.0</ele><time>2026-04-02T21:32:22Z</time></trkpt><trkpt lat="-34.087365802064554" lon="-71.96602691530167"><ele>62.0</ele><time>2026-04-02T21:32:26Z</time></trkpt><trkpt lat="-34.08730618928572" lon="-71.96598638837763"><ele>62.00000000000001</ele><time>2026-04-02T21:32:31Z</time></trkpt><trkpt lat="-34.08726471833172" lon="-71.96592266537189"><ele>62.0</ele><time>2026-04-02T21:32:36Z</time></trkpt><trkpt lat="-34.08723438329887" lon="-71.96585337280125"><ele>62.0</ele><time>2026-04-02T21:32:42Z</time></trkpt><trkpt lat="-34.08722438128637" lon="-71.96576259811428"><ele>56.42857142857143</ele><time>2026-04-02T21:32:48Z</time></trkpt><trkpt lat="-34.08722209552896" lon="-71.96568555780492"><ele>50.85714285714286</ele><time>2026-04-02T21:32:52Z</time></trkpt><trkpt lat="-34.087240800018606" lon="-71.96561121838914"><ele>45.28571428571429</ele><time>2026-04-02T21:32:56Z</time></trkpt><trkpt lat="-34.087264782402386" lon="-71.96552910610961"><ele>39.714285714285715</ele><time>2026-04-02T21:33:01Z</time></trkpt><trkpt lat="-34.08728568988048" lon="-71.96545311484745"><ele>34.14285714285714</ele><time>2026-04-02T21:33:07Z</time></trkpt><trkpt lat="-34.08733965780084" lon="-71.96540285293932"><ele>28.571428571428573</ele><time>2026-04-02T21:33:15Z</time></trkpt><trkpt lat="-34.08739020007974" lon="-71.96535040350848"><ele>23.0</ele><time>2026-04-02T21:33:23Z</time></trkpt><trkpt lat="-34.08742508441892" lon="-71.9652828977184"><ele>27.285714285714285</ele><time>2026-04-02T21:33:29Z</time></trkpt><trkpt lat="-34.08743862548463" lon="-71.96518774557693"><ele>31.57142857142857</ele><time>2026-04-02T21:33:35Z</time></trkpt><trkpt lat="-34.087480910348035" lon="-71.96513047754952"><ele>35.85714285714286</ele><time>2026-04-02T21:33:39Z</time></trkpt><trkpt lat="-34.08749907585703" lon="-71.96503854019424"><ele>40.14285714285714</ele><time>2026-04-02T21:33:56Z</time></trkpt><trkpt lat="-34.08753848860467" lon="-71.96497701802116"><ele>44.42857142857142</ele><time>2026-04-02T21:34:11Z</time></trkpt><trkpt lat="-34.08755857232767" lon="-71.96490219602896"><ele>48.714285714285715</ele><time>2026-04-02T21:34:18Z</time></trkpt><trkpt lat="-34.08758168860862" lon="-71.96481075298588"><ele>53.0</ele><time>2026-04-02T21:34:24Z</time></trkpt><trkpt lat="-34.08761504180414" lon="-71.96473714462137"><ele>53.0</ele><time>2026-04-02T21:34:30Z</time></trkpt><trkpt lat="-34.087665864106874" lon="-71.96468624117863"><ele>53.0</ele><time>2026-04-02T21:34:37Z</time></trkpt><trkpt lat="-34.08767579218864" lon="-71.96460946183666"><ele>53.0</ele><time>2026-04-02T21:34:42Z</time></trkpt><trkpt lat="-34.08772579346051" lon="-71.96455885637646"><ele>53.0</ele><time>2026-04-02T21:34:48Z</time></trkpt><trkpt lat="-34.087779945825524" lon="-71.96449631094555"><ele>53.0</ele><time>2026-04-02T21:34:54Z</time></trkpt><trkpt lat="-34.08782620657395" lon="-71.96443271724223"><ele>53.0</ele><time>2026-04-02T21:34:59Z</time></trkpt><trkpt lat="-34.087899555209965" lon="-71.96440062636917"><ele>53.0</ele><time>2026-04-02T21:35:04Z</time></trkpt><trkpt lat="-34.087964189946845" lon="-71.96438676850208"><ele>53.0</ele><time>2026-04-02T21:35:12Z</time></trkpt><trkpt lat="-34.088039402348116" lon="-71.96436665576383"><ele>53.0</ele><time>2026-04-02T21:35:18Z</time></trkpt><trkpt lat="-34.08811028926827" lon="-71.96435909342553"><ele>53.0</ele><time>2026-04-02T21:35:25Z</time></trkpt><trkpt lat="-34.088172131466834" lon="-71.9643133308988"><ele>53.0</ele><time>2026-04-02T21:35:31Z</time></trkpt><trkpt lat="-34.08822876985592" lon="-71.96425887307299"><ele>53.0</ele><time>2026-04-02T21:35:37Z</time></trkpt><trkpt lat="-34.08827961488689" lon="-71.96419113202533"><ele>53.0</ele><time>2026-04-02T21:35:42Z</time></trkpt><trkpt lat="-34.088331740832366" lon="-71.96414521660785"><ele>53.0</ele><time>2026-04-02T21:35:48Z</time></trkpt><trkpt lat="-34.08837910479964" lon="-71.96409277529816"><ele>52.42857142857143</ele><time>2026-04-02T21:35:55Z</time></trkpt><trkpt lat="-34.08843274062583" lon="-71.96405248183098"><ele>51.857142857142854</ele><time>2026-04-02T21:35:59Z</time></trkpt><trkpt lat="-34.08850336715558" lon="-71.96402392172813"><ele>51.285714285714285</ele><time>2026-04-02T21:36:06Z</time></trkpt><trkpt lat="-34.0885697831456" lon="-71.96399132475041"><ele>50.714285714285715</ele><time>2026-04-02T21:36:12Z</time></trkpt><trkpt lat="-34.088634657701014" lon="-71.96395746838452"><ele>50.14285714285714</ele><time>2026-04-02T21:36:18Z</time></trkpt><trkpt lat="-34.08871438177534" lon="-71.96393409644631"><ele>49.57142857142857</ele><time>2026-04-02T21:36:24Z</time></trkpt><trkpt lat="-34.08876720331258" lon="-71.96387793166551"><ele>49.0</ele><time>2026-04-02T21:36:33Z</time></trkpt><trkpt lat="-34.088830674751456" lon="-71.96385140445403"><ele>49.0</ele><time>2026-04-02T21:36:40Z</time></trkpt><trkpt lat="-34.08889783633655" lon="-71.9638509678285"><ele>49.0</ele><time>2026-04-02T21:36:46Z</time></trkpt><trkpt lat="-34.08896169444992" lon="-71.96387183257727"><ele>49.0</ele><time>2026-04-02T21:36:53Z</time></trkpt><trkpt lat="-34.089030055134174" lon="-71.96384926133761"><ele>49.0</ele><time>2026-04-02T21:36:59Z</time></trkpt><trkpt lat="-34.08910156623747" lon="-71.96384020044412"><ele>49.0</ele><time>2026-04-02T21:37:05Z</time></trkpt><trkpt lat="-34.08916607575274" lon="-71.96384661605148"><ele>49.0</ele><time>2026-04-02T21:37:11Z</time></trkpt><trkpt lat="-34.08923700467428" lon="-71.9638545519791"><ele>49.0</ele><time>2026-04-02T21:37:17Z</time></trkpt><trkpt lat="-34.08930942727441" lon="-71.9638470107929"><ele>49.0</ele><time>2026-04-02T21:37:23Z</time></trkpt><trkpt lat="-34.08937941904789" lon="-71.96382337262793"><ele>49.0</ele><time>2026-04-02T21:37:30Z</time></trkpt><trkpt lat="-34.08936570346688" lon="-71.96374222110028"><ele>49.0</ele><time>2026-04-02T21:37:37Z</time></trkpt><trkpt lat="-34.08931612161968" lon="-71.96369139542647"><ele>49.0</ele><time>2026-04-02T21:37:42Z</time></trkpt><trkpt lat="-34.08925135648645" lon="-71.96367978178345"><ele>49.0</ele><time>2026-04-02T21:37:48Z</time></trkpt><trkpt lat="-34.08919743472846" lon="-71.96363619600295"><ele>49.0</ele><time>2026-04-02T21:37:53Z</time></trkpt><trkpt lat="-34.089128799100884" lon="-71.96360503258737"><ele>49.0</ele><time>2026-04-02T21:38:00Z</time></trkpt><trkpt lat="-34.089053635340875" lon="-71.96357777071842"><ele>49.0</ele><time>2026-04-02T21:38:07Z</time></trkpt><trkpt lat="-34.08898144271108" lon="-71.9635790908291"><ele>49.0</ele><time>2026-04-02T21:38:12Z</time></trkpt><trkpt lat="-34.088910796609504" lon="-71.96359813217704"><ele>49.0</ele><time>2026-04-02T21:38:17Z</time></trkpt><trkpt lat="-34.088843199793985" lon="-71.96361145623817"><ele>49.0</ele><time>2026-04-02T21:38:24Z</time></trkpt><trkpt lat="-34.088774715914" lon="-71.96361298297403"><ele>49.0</ele><time>2026-04-02T21:38:30Z</time></trkpt><trkpt lat="-34.08869739613915" lon="-71.96359848945646"><ele>49.0</ele><time>2026-04-02T21:38:38Z</time></trkpt><trkpt lat="-34.08862040163518" lon="-71.96359532238603"><ele>49.0</ele><time>2026-04-02T21:38:44Z</time></trkpt><trkpt lat="-34.08854863796342" lon="-71.96359046018907"><ele>49.0</ele><time>2026-04-02T21:38:50Z</time></trkpt><trkpt lat="-34.08847648625619" lon="-71.96359740810296"><ele>49.0</ele><time>2026-04-02T21:38:57Z</time></trkpt><trkpt lat="-34.088414167897795" lon="-71.96363121491544"><ele>49.0</ele><time>2026-04-02T21:39:04Z</time></trkpt><trkpt lat="-34.08837007936458" lon="-71.96357670140482"><ele>49.0</ele><time>2026-04-02T21:39:21Z</time></trkpt><trkpt lat="-34.088416436814505" lon="-71.96350526520767"><ele>49.0</ele><time>2026-04-02T21:39:30Z</time></trkpt><trkpt lat="-34.088423883130474" lon="-71.96342163096446"><ele>49.0</ele><time>2026-04-02T21:39:38Z</time></trkpt><trkpt lat="-34.08839195670798" lon="-71.96335511975539"><ele>49.0</ele><time>2026-04-02T21:39:43Z</time></trkpt><trkpt lat="-34.088388302969015" lon="-71.96327350933834"><ele>45.285714285714285</ele><time>2026-04-02T21:39:52Z</time></trkpt><trkpt lat="-34.088408625216935" lon="-71.96319342910691"><ele>41.57142857142857</ele><time>2026-04-02T21:40:10Z</time></trkpt><trkpt lat="-34.088449066121655" lon="-71.96309141692562"><ele>37.85714285714286</ele><time>2026-04-02T21:40:47Z</time></trkpt><trkpt lat="-34.08842629641881" lon="-71.96300539493592"><ele>34.14285714285714</ele><time>2026-04-02T21:40:53Z</time></trkpt><trkpt lat="-34.08844906212014" lon="-71.96293396307591"><ele>30.428571428571427</ele><time>2026-04-02T21:41:01Z</time></trkpt><trkpt lat="-34.08846326007553" lon="-71.96285416363546"><ele>26.714285714285715</ele><time>2026-04-02T21:41:07.998Z</time></trkpt><trkpt lat="-34.08850303749932" lon="-71.96279121882236"><ele>23.0</ele><time>2026-04-02T21:41:14.999Z</time></trkpt><trkpt lat="-34.08849994659094" lon="-71.9627082196379"><ele>23.0</ele><time>2026-04-02T21:41:23.999Z</time></trkpt><trkpt lat="-34.08851980028874" lon="-71.96263119927787"><ele>23.0</ele><time>2026-04-02T21:42:28.999Z</time></trkpt><trkpt lat="-34.08859216411663" lon="-71.96258421524122"><ele>23.0</ele><time>2026-04-02T21:42:32.999Z</time></trkpt><trkpt lat="-34.08862450604667" lon="-71.96251362353048"><ele>3.0</ele><time>2026-04-02T21:42:37.999Z</time></trkpt><trkpt lat="-34.088648229216645" lon="-71.9624393411911"><ele>3.0</ele><time>2026-04-02T21:42:46.999Z</time></trkpt></trkseg></trk></gpx>